Time;durP1;ratioP1;P1;durP2;ratioP2;P2;SDS_P1;SDS_P2;PMS_P1;PMS_P2;Temp;Humidity;BMP_temperature;BMP_pressure;BME280_temperature;BME280_humidity;BME280_pressure;Samples;Min_cycle;Max_cycle;Signal;HPM_P1;HPM_P2
2022/03/13 00:02:21;;;;;;;35.20;19.50;;;3.10;99.90;;;;;;4973869;28;20484;-69
2022/03/13 00:04:49;;;;;;;43.03;19.13;;;3.10;99.90;;;;;;4973963;28;20960;-70
2022/03/13 00:07:19;;;;;;;41.37;20.37;;;3.10;99.90;;;;;;4974153;28;20483;-70
2022/03/13 00:09:46;;;;;;;33.60;18.77;;;3.00;99.90;;;;;;4974081;28;20487;-69
2022/03/13 00:12:15;;;;;;;34.67;18.87;;;3.00;99.90;;;;;;4973126;28;20948;-70
2022/03/13 00:14:43;;;;;;;33.30;19.60;;;3.00;99.90;;;;;;4976817;28;20514;-70
2022/03/13 00:17:11;;;;;;;31.00;18.40;;;2.90;99.90;;;;;;4983096;28;20479;-70
2022/03/13 00:19:38;;;;;;;38.23;19.53;;;2.80;99.90;;;;;;4992243;28;20588;-69
2022/03/13 00:22:06;;;;;;;34.27;18.70;;;2.80;99.90;;;;;;4993292;28;21003;-69
2022/03/13 00:24:33;;;;;;;30.60;18.37;;;2.80;99.90;;;;;;4991488;28;20963;-70
2022/03/13 00:27:01;;;;;;;38.23;19.40;;;2.80;99.90;;;;;;4973237;28;20483;-70
2022/03/13 00:29:28;;;;;;;38.30;18.73;;;2.70;99.90;;;;;;4973687;28;20484;-70
2022/03/13 00:31:56;;;;;;;36.60;19.47;;;2.70;99.90;;;;;;4973654;28;20506;-70
2022/03/13 00:34:22;;;;;;;34.23;18.67;;;2.70;99.90;;;;;;4972984;28;20448;-69
2022/03/13 00:36:49;;;;;;;35.70;19.83;;;2.70;99.90;;;;;;4991532;28;20541;-69
2022/03/13 00:39:16;;;;;;;34.67;18.40;;;2.60;99.90;;;;;;4992783;28;20461;-69
2022/03/13 00:41:44;;;;;;;33.47;19.20;;;2.60;99.90;;;;;;4985165;28;20546;-69
2022/03/13 00:44:11;;;;;;;37.77;19.87;;;2.60;99.90;;;;;;4979097;28;20459;-70
2022/03/13 00:46:37;;;;;;;38.70;20.07;;;2.50;99.90;;;;;;4992904;28;20593;-70
2022/03/13 00:49:06;;;;;;;36.07;19.50;;;2.60;99.90;;;;;;4978942;28;20599;-70
2022/03/13 00:51:33;;;;;;;38.03;19.10;;;2.40;99.90;;;;;;4992332;28;20882;-70
2022/03/13 00:53:59;;;;;;;38.33;18.63;;;2.40;99.90;;;;;;4978194;28;20466;-70
2022/03/13 00:56:26;;;;;;;32.40;18.03;;;2.20;99.90;;;;;;4972722;28;20486;-69
2022/03/13 00:58:53;;;;;;;32.20;17.90;;;2.00;99.90;;;;;;4983447;28;20462;-69
2022/03/13 01:01:19;;;;;;;35.93;19.37;;;2.10;99.90;;;;;;4992508;28;20497;-70
2022/03/13 01:03:51;;;;;;;36.93;19.80;;;2.00;99.90;;;;;;4990733;28;20944;-70
2022/03/13 01:06:20;;;;;;;36.60;17.97;;;2.00;99.90;;;;;;4991759;28;20483;-70
2022/03/13 01:08:50;;;;;;;37.97;19.73;;;2.00;99.90;;;;;;4992391;28;20451;-70
2022/03/13 01:11:18;;;;;;;32.80;19.17;;;1.90;99.90;;;;;;4991286;28;20509;-70
2022/03/13 01:13:46;;;;;;;37.80;19.13;;;1.90;99.90;;;;;;4975525;28;20507;-70
2022/03/13 01:16:15;;;;;;;35.07;18.10;;;1.90;99.90;;;;;;4992022;28;20553;-70
2022/03/13 01:18:45;;;;;;;31.10;17.37;;;1.90;99.90;;;;;;4991902;28;20487;-70
2022/03/13 01:21:12;;;;;;;33.40;18.63;;;1.80;99.90;;;;;;4984533;28;20506;-70
2022/03/13 01:23:41;;;;;;;37.20;18.77;;;1.70;99.90;;;;;;4991294;28;20462;-70
2022/03/13 01:26:37;;;;;;;34.53;18.03;;;1.70;99.90;;;;;;4980165;28;20471;-70
2022/03/13 01:29:07;;;;;;;35.70;19.53;;;1.70;99.90;;;;;;4972274;28;20456;-69
2022/03/13 01:31:36;;;;;;;44.53;18.07;;;1.70;99.90;;;;;;4979911;28;20502;-70
2022/03/13 01:34:03;;;;;;;33.30;18.17;;;1.70;99.90;;;;;;4991734;28;20466;-69
2022/03/13 01:36:30;;;;;;;30.10;18.20;;;1.60;99.90;;;;;;4991177;28;20471;-70
2022/03/13 01:39:00;;;;;;;32.03;17.77;;;1.60;99.90;;;;;;4989917;28;20501;-69
2022/03/13 01:41:28;;;;;;;32.40;18.73;;;1.60;99.90;;;;;;4986500;28;20460;-69
2022/03/13 01:43:56;;;;;;;28.30;15.40;;;1.50;99.90;;;;;;4972025;28;20780;-69
2022/03/13 01:46:22;;;;;;;33.50;16.90;;;1.40;99.90;;;;;;4972381;28;20508;-69
2022/03/13 01:48:54;;;;;;;35.97;17.87;;;1.40;99.90;;;;;;4972232;28;20507;-69
2022/03/13 01:51:22;;;;;;;26.40;16.20;;;1.30;99.90;;;;;;4972278;28;20452;-70
2022/03/13 01:53:52;;;;;;;33.33;16.23;;;1.30;99.90;;;;;;4971626;28;20972;-70
2022/03/13 01:56:21;;;;;;;31.27;17.47;;;1.30;99.90;;;;;;4973542;28;20475;-69
2022/03/13 01:58:50;;;;;;;30.17;17.57;;;1.30;99.90;;;;;;4971450;28;20543;-70
2022/03/13 02:01:17;;;;;;;30.33;15.90;;;1.30;99.90;;;;;;4972048;28;21019;-69
2022/03/13 02:03:45;;;;;;;33.17;17.33;;;1.30;99.90;;;;;;4971498;28;20464;-69
2022/03/13 02:06:11;;;;;;;30.63;16.03;;;1.30;99.90;;;;;;4972025;28;20480;-69
2022/03/13 02:08:38;;;;;;;34.20;18.53;;;1.30;99.90;;;;;;4971567;28;20520;-70
2022/03/13 02:11:05;;;;;;;29.03;17.10;;;1.30;99.90;;;;;;4972265;28;20543;-69
2022/03/13 02:13:34;;;;;;;29.70;16.40;;;1.40;99.90;;;;;;4971519;28;20607;-70
2022/03/13 02:16:01;;;;;;;33.30;16.80;;;1.30;99.90;;;;;;4988127;28;20471;-70
2022/03/13 02:18:27;;;;;;;31.90;17.97;;;1.30;99.90;;;;;;4971856;28;20534;-70
2022/03/13 02:20:54;;;;;;;30.53;16.80;;;1.30;99.90;;;;;;4971693;28;20456;-70
2022/03/13 02:23:25;;;;;;;36.23;17.60;;;1.30;99.90;;;;;;4971542;28;21023;-69
2022/03/13 02:25:53;;;;;;;33.50;17.70;;;1.40;99.90;;;;;;4971522;28;20444;-70
2022/03/13 02:28:22;;;;;;;32.73;17.17;;;1.20;99.90;;;;;;4971869;28;20533;-69
2022/03/13 02:30:52;;;;;;;35.00;17.00;;;1.20;99.90;;;;;;4970971;28;20451;-69
2022/03/13 02:33:21;;;;;;;23.40;13.13;;;1.20;99.90;;;;;;4971383;28;20448;-70
2022/03/13 02:35:52;;;;;;;26.70;13.10;;;1.20;99.90;;;;;;4973321;28;20468;-69
2022/03/13 02:38:19;;;;;;;25.17;13.93;;;1.20;99.90;;;;;;4975913;28;20466;-70
2022/03/13 02:40:47;;;;;;;21.43;12.50;;;1.20;99.90;;;;;;4985508;28;20455;-70
2022/03/13 02:43:14;;;;;;;23.53;13.20;;;1.20;99.90;;;;;;4975571;28;20542;-69
2022/03/13 02:45:41;;;;;;;23.07;12.30;;;1.20;99.90;;;;;;4977244;28;20459;-70
2022/03/13 02:48:10;;;;;;;22.47;11.90;;;1.20;99.90;;;;;;4994033;28;20877;-70
2022/03/13 02:50:37;;;;;;;22.67;11.70;;;1.30;99.90;;;;;;4995337;28;20465;-69
2022/03/13 02:53:06;;;;;;;22.40;11.90;;;1.30;99.90;;;;;;4977955;28;20972;-70
2022/03/13 02:55:34;;;;;;;20.80;12.50;;;1.30;99.90;;;;;;4994319;28;20455;-69
2022/03/13 02:58:02;;;;;;;26.30;11.93;;;1.30;99.90;;;;;;4994054;28;20502;-70
2022/03/13 03:00:46;;;;;;;22.63;11.60;;;1.30;99.90;;;;;;4994888;28;20454;-70
2022/03/13 03:03:14;;;;;;;23.30;12.03;;;1.40;99.90;;;;;;4976129;28;20883;-70
2022/03/13 03:05:41;;;;;;;27.00;11.87;;;1.40;99.90;;;;;;4974928;28;20514;-70
2022/03/13 03:08:08;;;;;;;19.73;11.63;;;1.40;99.90;;;;;;4975203;28;20462;-70
2022/03/13 03:10:36;;;;;;;22.07;11.60;;;1.40;99.90;;;;;;4974988;28;20459;-69
2022/03/13 03:13:05;;;;;;;19.00;11.30;;;1.40;99.90;;;;;;4975287;28;20878;-70
2022/03/13 03:15:31;;;;;;;23.47;13.13;;;1.40;99.90;;;;;;4988662;28;20458;-69
2022/03/13 03:17:58;;;;;;;22.57;12.73;;;1.40;99.90;;;;;;4990349;28;20475;-70
2022/03/13 03:20:25;;;;;;;25.23;13.20;;;1.30;99.90;;;;;;4978984;28;20876;-70
2022/03/13 03:22:53;;;;;;;22.00;11.30;;;1.30;99.90;;;;;;4974614;28;20483;-69
2022/03/13 03:25:23;;;;;;;22.30;11.90;;;1.20;99.90;;;;;;4974626;28;20474;-70
2022/03/13 03:27:50;;;;;;;20.80;12.07;;;1.20;99.90;;;;;;4974271;28;20478;-70
2022/03/13 03:30:21;;;;;;;21.37;11.43;;;1.20;99.90;;;;;;4974463;28;20493;-70
2022/03/13 03:32:48;;;;;;;21.13;11.10;;;1.20;99.90;;;;;;4985120;28;20531;-70
2022/03/13 03:35:15;;;;;;;21.00;10.97;;;1.10;99.90;;;;;;4974499;28;21028;-70
2022/03/13 03:37:41;;;;;;;20.10;11.30;;;1.10;99.90;;;;;;4982652;28;20475;-70
2022/03/13 03:40:09;;;;;;;21.20;10.70;;;1.00;99.90;;;;;;4981874;28;20462;-70
2022/03/13 03:42:36;;;;;;;23.30;11.63;;;1.00;99.90;;;;;;4981738;28;21056;-69
2022/03/13 03:45:04;;;;;;;20.73;10.60;;;0.90;99.90;;;;;;4994165;28;20501;-70
2022/03/13 03:47:31;;;;;;;21.70;11.00;;;0.90;99.90;;;;;;4982121;28;20475;-69
2022/03/13 03:49:58;;;;;;;24.90;11.43;;;0.90;99.90;;;;;;4990892;28;20952;-69
2022/03/13 03:52:25;;;;;;;22.10;12.00;;;0.90;99.90;;;;;;4974458;28;20879;-70
2022/03/13 03:54:52;;;;;;;26.37;12.17;;;0.80;99.90;;;;;;4974229;28;20459;-70
2022/03/13 03:57:19;;;;;;;25.33;13.33;;;0.70;99.90;;;;;;4974231;28;20968;-69
2022/03/13 03:59:46;;;;;;;23.80;12.97;;;0.70;99.90;;;;;;4974109;28;20448;-70
2022/03/13 04:02:13;;;;;;;29.57;14.60;;;0.70;99.90;;;;;;4975266;28;20487;-70
2022/03/13 04:04:41;;;;;;;25.57;13.93;;;0.60;99.90;;;;;;4973574;28;20870;-70
2022/03/13 04:07:07;;;;;;;22.30;12.47;;;0.60;99.90;;;;;;4973813;28;20483;-69
2022/03/13 04:09:34;;;;;;;25.60;14.33;;;0.60;99.90;;;;;;4974100;28;20518;-70
2022/03/13 04:12:07;;;;;;;24.23;12.47;;;0.50;99.90;;;;;;4974084;28;20463;-70
2022/03/13 04:14:35;;;;;;;26.47;13.70;;;0.50;99.90;;;;;;4973916;28;20464;-70
2022/03/13 04:17:01;;;;;;;24.33;12.60;;;0.50;99.90;;;;;;4973866;28;20464;-69
2022/03/13 04:19:28;;;;;;;21.23;12.30;;;0.50;99.90;;;;;;4980105;28;20451;-69
2022/03/13 04:21:57;;;;;;;26.17;13.07;;;0.50;99.90;;;;;;4976423;28;20460;-70
2022/03/13 04:24:23;;;;;;;23.27;12.33;;;0.40;99.90;;;;;;4973705;28;20995;-70
2022/03/13 04:26:51;;;;;;;22.77;12.43;;;0.40;99.90;;;;;;4990409;28;20902;-69
2022/03/13 04:29:23;;;;;;;22.30;12.60;;;0.30;99.90;;;;;;4992648;28;20459;-70
2022/03/13 04:31:52;;;;;;;22.60;12.27;;;0.40;99.90;;;;;;4991226;28;20462;-69
2022/03/13 04:34:19;;;;;;;24.07;12.90;;;0.40;99.90;;;;;;4972826;28;20865;-70
2022/03/13 04:36:47;;;;;;;26.83;12.33;;;0.20;99.90;;;;;;4973177;28;20468;-70
2022/03/13 04:39:15;;;;;;;26.20;12.63;;;0.20;99.90;;;;;;4973485;28;20605;-69
2022/03/13 04:41:43;;;;;;;20.50;11.80;;;0.20;99.90;;;;;;4973436;28;20452;-70
2022/03/13 04:44:14;;;;;;;19.67;11.83;;;0.20;99.90;;;;;;4973303;28;20492;-70
2022/03/13 04:46:41;;;;;;;22.73;11.67;;;0.20;99.90;;;;;;4972860;28;20884;-70
2022/03/13 04:49:07;;;;;;;23.80;11.80;;;0.20;99.90;;;;;;4975082;28;20518;-70
2022/03/13 04:51:34;;;;;;;24.93;11.57;;;0.30;99.90;;;;;;4973197;28;20880;-70
2022/03/13 04:54:01;;;;;;;23.10;12.10;;;0.20;99.90;;;;;;4971786;28;20455;-70
2022/03/13 04:56:29;;;;;;;18.70;11.10;;;0.30;99.90;;;;;;4973235;28;20783;-71
2022/03/13 04:58:56;;;;;;;22.33;12.27;;;0.20;99.90;;;;;;4972745;28;20464;-72
2022/03/13 05:01:23;;;;;;;23.17;13.17;;;0.20;99.90;;;;;;4975741;28;20541;-71
2022/03/13 05:03:49;;;;;;;24.53;12.80;;;0.20;99.90;;;;;;4989587;28;20475;-71
2022/03/13 05:06:16;;;;;;;21.77;13.07;;;0.30;99.90;;;;;;4983967;28;20480;-71
2022/03/13 05:08:44;;;;;;;21.50;12.43;;;0.20;99.90;;;;;;4972101;28;20957;-71
2022/03/13 05:11:11;;;;;;;22.90;13.10;;;0.30;99.90;;;;;;4987779;28;20467;-71
2022/03/13 05:13:39;;;;;;;20.27;12.77;;;0.20;99.90;;;;;;4983164;28;20961;-71
2022/03/13 05:16:06;;;;;;;30.43;13.40;;;0.30;99.90;;;;;;4974136;28;20491;-71
2022/03/13 05:18:32;;;;;;;28.70;13.80;;;0.20;99.90;;;;;;4972141;28;20876;-71
2022/03/13 05:20:59;;;;;;;24.93;13.70;;;0.20;99.90;;;;;;4972923;28;20874;-72
2022/03/13 05:23:26;;;;;;;24.67;14.60;;;0.20;99.90;;;;;;4971956;28;20484;-71
2022/03/13 05:25:52;;;;;;;25.10;13.60;;;0.30;99.90;;;;;;4972595;28;20452;-71
2022/03/13 05:28:19;;;;;;;34.83;15.67;;;0.30;99.90;;;;;;4972627;28;20872;-71
2022/03/13 05:30:47;;;;;;;26.37;13.67;;;0.30;99.90;;;;;;4972102;28;20460;-71
2022/03/13 05:33:14;;;;;;;26.30;13.90;;;0.30;99.90;;;;;;4972482;28;20514;-71
2022/03/13 05:35:40;;;;;;;27.70;13.57;;;0.30;99.90;;;;;;4971859;28;21014;-71
2022/03/13 05:38:07;;;;;;;23.37;13.17;;;0.30;99.90;;;;;;4982894;28;20459;-71
2022/03/13 05:40:36;;;;;;;24.67;14.00;;;0.30;99.90;;;;;;4991330;28;20459;-71
2022/03/13 05:43:04;;;;;;;27.37;14.20;;;0.30;99.90;;;;;;4975274;28;20491;-71
2022/03/13 05:45:32;;;;;;;24.03;13.63;;;0.20;99.90;;;;;;4986323;28;20952;-71
2022/03/13 05:48:06;;;;;;;23.70;13.17;;;0.20;99.90;;;;;;4972355;28;20476;-71
2022/03/13 05:50:33;;;;;;;25.67;15.00;;;0.30;99.90;;;;;;4972281;28;20451;-71
2022/03/13 05:53:00;;;;;;;27.50;14.50;;;0.20;99.90;;;;;;4971941;28;20455;-71
2022/03/13 05:55:27;;;;;;;32.83;14.60;;;0.30;99.90;;;;;;4972067;28;20492;-71
2022/03/13 05:57:54;;;;;;;26.17;14.03;;;0.30;99.90;;;;;;4971498;28;20476;-71
2022/03/13 06:00:22;;;;;;;26.17;13.00;;;0.30;99.90;;;;;;4972337;28;20498;-71
2022/03/13 06:02:49;;;;;;;25.63;14.20;;;0.30;99.90;;;;;;4971650;28;20555;-71
2022/03/13 06:05:18;;;;;;;26.27;13.40;;;0.50;99.90;;;;;;4971880;28;20460;-71
2022/03/13 06:07:45;;;;;;;24.57;14.60;;;0.50;99.90;;;;;;4971989;28;20500;-71
2022/03/13 06:10:12;;;;;;;27.87;14.00;;;0.60;99.90;;;;;;4973251;28;20455;-71
2022/03/13 06:12:38;;;;;;;27.10;14.27;;;0.80;99.90;;;;;;4984290;28;20448;-72
2022/03/13 06:15:07;;;;;;;21.37;13.63;;;0.90;99.90;;;;;;4980533;28;20459;-71
2022/03/13 06:17:38;;;;;;;28.13;14.77;;;1.00;99.90;;;;;;4990738;28;20479;-71
2022/03/13 06:20:10;;;;;;;24.60;14.00;;;1.20;99.90;;;;;;4989531;28;20478;-71
2022/03/13 06:22:38;;;;;;;21.77;13.00;;;1.50;99.90;;;;;;4983790;28;20468;-70
2022/03/13 06:25:06;;;;;;;26.70;13.70;;;1.80;99.90;;;;;;4971581;28;20503;-70
2022/03/13 06:27:33;;;;;;;28.07;13.70;;;2.20;99.90;;;;;;4976819;28;20792;-70
2022/03/13 06:30:01;;;;;;;23.60;12.80;;;2.60;99.90;;;;;;4974288;28;21254;-70
2022/03/13 06:32:28;;;;;;;27.70;13.70;;;3.10;99.90;;;;;;4971278;28;20448;-71
2022/03/13 06:34:55;;;;;;;27.93;13.40;;;3.50;99.90;;;;;;4972783;28;20526;-70
2022/03/13 06:37:22;;;;;;;30.43;13.80;;;4.00;99.90;;;;;;4972981;28;20470;-71
2022/03/13 06:39:51;;;;;;;25.20;14.57;;;4.40;99.90;;;;;;4970687;28;20784;-70
2022/03/13 06:42:18;;;;;;;24.33;13.70;;;4.80;99.90;;;;;;4971738;28;20464;-70
2022/03/13 06:44:45;;;;;;;22.97;13.40;;;5.10;99.90;;;;;;4986205;28;20515;-70
2022/03/13 06:47:13;;;;;;;25.43;14.13;;;5.50;99.90;;;;;;4990627;28;20475;-71
2022/03/13 06:49:40;;;;;;;30.30;14.60;;;5.90;99.90;;;;;;4984097;28;20542;-70
2022/03/13 06:52:07;;;;;;;21.87;13.13;;;6.20;99.90;;;;;;4981794;28;21026;-70
2022/03/13 06:54:34;;;;;;;19.50;13.30;;;6.70;99.90;;;;;;4986476;28;20451;-70
2022/03/13 06:57:02;;;;;;;21.80;13.93;;;7.00;99.90;;;;;;4990738;28;20511;-70
2022/03/13 06:59:29;;;;;;;21.77;13.90;;;7.20;99.90;;;;;;4990485;28;20517;-70
2022/03/13 07:01:56;;;;;;;26.30;14.17;;;7.70;99.90;;;;;;4990862;28;20525;-70
2022/03/13 07:04:22;;;;;;;20.93;12.50;;;8.00;99.90;;;;;;4990910;28;20550;-70
2022/03/13 07:06:49;;;;;;;18.97;12.77;;;8.30;99.90;;;;;;4974412;28;20542;-70
2022/03/13 07:09:15;;;;;;;18.87;13.10;;;8.60;99.90;;;;;;4971095;28;20563;-70
2022/03/13 07:11:45;;;;;;;17.07;11.67;;;8.80;99.90;;;;;;4971018;28;20460;-70
2022/03/13 07:14:13;;;;;;;18.43;11.40;;;9.10;99.10;;;;;;4970846;28;20456;-71
2022/03/13 07:16:41;;;;;;;16.13;9.97;;;9.30;97.50;;;;;;4985952;28;20479;-71
2022/03/13 07:19:07;;;;;;;15.63;9.80;;;9.70;92.40;;;;;;4988696;28;20542;-71
2022/03/13 07:21:34;;;;;;;15.70;9.47;;;9.90;89.50;;;;;;4972098;28;20897;-71
2022/03/13 07:24:01;;;;;;;12.77;8.90;;;10.10;89.10;;;;;;4992827;28;20549;-70
2022/03/13 07:26:27;;;;;;;12.27;8.77;;;10.10;85.50;;;;;;4993658;28;20470;-71
2022/03/13 07:28:54;;;;;;;21.83;9.40;;;10.10;83.60;;;;;;4993974;28;20847;-72
2022/03/13 07:31:22;;;;;;;14.27;8.40;;;9.90;83.20;;;;;;4983757;28;20456;-72
2022/03/13 07:33:48;;;;;;;15.77;8.53;;;9.80;84.10;;;;;;4974624;28;20503;-71
2022/03/13 07:36:15;;;;;;;18.97;9.03;;;9.90;84.60;;;;;;4974839;28;20475;-71
2022/03/13 07:38:42;;;;;;;15.40;9.50;;;9.80;84.00;;;;;;4974189;28;21055;-72
2022/03/13 07:41:08;;;;;;;16.43;9.23;;;9.30;82.80;;;;;;4974602;28;20452;-73
2022/03/13 07:43:35;;;;;;;17.73;8.30;;;9.20;84.10;;;;;;4974240;28;20935;-72
2022/03/13 07:46:01;;;;;;;13.63;8.13;;;9.20;84.60;;;;;;4974321;28;20538;-71
2022/03/13 07:48:30;;;;;;;13.87;9.00;;;9.20;83.80;;;;;;4993178;28;20529;-71
2022/03/13 07:50:57;;;;;;;14.00;8.33;;;9.20;84.20;;;;;;4994023;28;20962;-72
2022/03/13 07:53:26;;;;;;;13.63;8.87;;;9.00;80.70;;;;;;4976491;28;20464;-71
2022/03/13 07:55:53;;;;;;;13.47;8.63;;;8.80;81.50;;;;;;4974549;28;20547;-72
2022/03/13 07:58:20;;;;;;;14.20;8.37;;;8.50;80.90;;;;;;4979324;28;20452;-72
2022/03/13 08:00:47;;;;;;;15.87;9.20;;;8.30;82.00;;;;;;4994118;28;20459;-72
2022/03/13 08:03:17;;;;;;;12.00;8.53;;;8.10;83.00;;;;;;4983987;28;20460;-72
2022/03/13 08:05:45;;;;;;;16.43;9.03;;;7.70;82.10;;;;;;4973467;28;20507;-72
2022/03/13 08:08:12;;;;;;;11.13;7.60;;;7.50;83.70;;;;;;4973338;28;20451;-71
2022/03/13 08:10:38;;;;;;;18.00;9.40;;;7.20;83.90;;;;;;4973975;28;20456;-72
2022/03/13 08:13:05;;;;;;;16.40;9.50;;;7.10;84.90;;;;;;4975625;28;20467;-72
2022/03/13 08:15:32;;;;;;;12.57;8.67;;;7.10;85.40;;;;;;4973371;28;20448;-71
2022/03/13 08:17:58;;;;;;;10.93;8.10;;;7.00;85.40;;;;;;4975297;28;20542;-72
2022/03/13 08:20:25;;;;;;;19.60;8.57;;;7.00;86.90;;;;;;4973524;28;20487;-71
2022/03/13 08:22:53;;;;;;;16.47;9.30;;;7.10;89.80;;;;;;4976139;28;20965;-72
2022/03/13 08:25:20;;;;;;;69.50;32.00;;;7.10;88.60;;;;;;4976757;28;20483;-71
2022/03/13 08:27:47;;;;;;;16.30;8.63;;;7.00;87.20;;;;;;4993103;28;20566;-71
2022/03/13 08:30:14;;;;;;;18.00;8.10;;;7.00;90.20;;;;;;4992834;28;20463;-71
2022/03/13 08:32:41;;;;;;;15.53;8.00;;;7.10;85.60;;;;;;4990030;28;20529;-72
2022/03/13 08:35:08;;;;;;;13.93;8.60;;;7.30;88.70;;;;;;4991428;28;21030;-71
2022/03/13 08:37:35;;;;;;;12.13;7.00;;;7.40;88.30;;;;;;4989661;28;20533;-70
2022/03/13 08:40:05;;;;;;;13.03;8.40;;;7.50;84.30;;;;;;4973055;28;20518;-71
2022/03/13 08:42:32;;;;;;;10.83;7.97;;;7.70;84.20;;;;;;4972254;28;20514;-71
2022/03/13 08:44:59;;;;;;;14.47;7.90;;;8.10;84.90;;;;;;4972154;28;20484;-71
2022/03/13 08:47:26;;;;;;;11.33;8.17;;;8.20;81.00;;;;;;4972469;28;20542;-71
2022/03/13 08:49:53;;;;;;;10.43;7.57;;;8.30;79.20;;;;;;4972820;28;20452;-72
2022/03/13 08:52:19;;;;;;;10.40;7.23;;;8.10;79.50;;;;;;4971986;28;20538;-71
2022/03/13 08:54:46;;;;;;;12.87;7.90;;;8.10;78.60;;;;;;4972534;28;20500;-71
2022/03/13 08:57:14;;;;;;;11.60;7.80;;;8.10;78.80;;;;;;4972314;28;20476;-71
2022/03/13 08:59:41;;;;;;;10.93;7.20;;;8.20;77.80;;;;;;4972802;28;20514;-72
2022/03/13 09:02:09;;;;;;;11.70;7.37;;;8.40;77.80;;;;;;4972534;28;20464;-71
2022/03/13 09:04:36;;;;;;;12.03;8.27;;;8.50;74.80;;;;;;4964283;28;20558;-71
2022/03/13 09:07:03;;;;;;;13.07;8.40;;;8.60;76.10;;;;;;4973195;28;20503;-71
2022/03/13 09:09:30;;;;;;;12.27;7.83;;;8.80;76.80;;;;;;4971752;28;20448;-71
2022/03/13 09:11:58;;;;;;;10.63;7.60;;;8.90;75.20;;;;;;4971469;28;20456;-71
2022/03/13 09:14:26;;;;;;;20.50;8.40;;;9.00;75.80;;;;;;4971688;28;20484;-71
2022/03/13 09:16:53;;;;;;;16.13;7.67;;;9.00;75.20;;;;;;4966242;28;20590;-72
2022/03/13 09:19:20;;;;;;;11.20;7.77;;;9.00;75.90;;;;;;4971826;28;20960;-72
2022/03/13 09:21:47;;;;;;;16.00;8.17;;;8.80;74.10;;;;;;4966366;28;20546;-71
2022/03/13 09:24:13;;;;;;;11.63;8.13;;;8.80;74.80;;;;;;4971359;28;20488;-71
2022/03/13 09:26:40;;;;;;;12.30;7.93;;;8.70;74.50;;;;;;4971493;28;20476;-71
2022/03/13 09:29:07;;;;;;;14.90;7.77;;;8.80;76.70;;;;;;4971532;28;20460;-71
2022/03/13 09:31:36;;;;;;;13.50;8.60;;;8.80;76.70;;;;;;4971348;28;20460;-71
2022/03/13 09:34:03;;;;;;;16.53;8.50;;;8.80;77.80;;;;;;4970731;28;20496;-70
2022/03/13 09:36:30;;;;;;;11.97;8.10;;;9.00;77.40;;;;;;4970978;28;20483;-72
2022/03/13 09:38:57;;;;;;;12.60;8.53;;;9.10;77.10;;;;;;4972447;28;20456;-70
2022/03/13 09:41:23;;;;;;;11.73;8.50;;;9.20;77.60;;;;;;4985221;28;20459;-71
2022/03/13 09:43:50;;;;;;;14.95;8.77;;;9.70;78.30;;;;;;4970716;28;20457;-72
2022/03/13 09:46:17;;;;;;;12.17;8.87;;;10.00;76.70;;;;;;4986482;28;20216;-72
2022/03/13 09:48:45;;;;;;;12.57;9.30;;;10.40;75.00;;;;;;4970950;28;20452;-71
2022/03/13 09:51:12;;;;;;;11.80;8.33;;;10.70;76.80;;;;;;4970224;28;20456;-71
2022/03/13 09:53:40;;;;;;;21.00;8.70;;;10.70;74.50;;;;;;4970886;28;20487;-72
2022/03/13 09:56:06;;;;;;;13.80;8.77;;;10.70;74.80;;;;;;4970753;28;20851;-71
2022/03/13 09:58:34;;;;;;;15.03;8.77;;;10.70;75.10;;;;;;4971208;28;20551;-73
2022/03/13 10:01:01;;;;;;;14.60;8.60;;;10.60;74.50;;;;;;4980067;28;20514;-71
2022/03/13 10:03:28;;;;;;;14.20;9.20;;;10.60;73.50;;;;;;4978870;28;20515;-71
2022/03/13 10:05:58;;;;;;;12.80;8.37;;;10.50;75.30;;;;;;4979865;28;20483;-72
2022/03/13 10:08:29;;;;;;;13.13;9.13;;;10.60;74.40;;;;;;4990310;28;20750;-71
2022/03/13 10:10:55;;;;;;;13.10;9.00;;;10.70;74.40;;;;;;4980532;28;20480;-71
2022/03/13 10:13:35;;;;;;;16.87;8.93;;;10.90;74.10;;;;;;4969978;28;20456;-71
2022/03/13 10:16:03;;;;;;;11.37;8.00;;;11.00;71.30;;;;;;4973518;28;20476;-70
2022/03/13 10:18:29;;;;;;;16.57;9.97;;;10.80;71.50;;;;;;4989139;28;20467;-71
2022/03/13 10:20:59;;;;;;;10.50;8.53;;;10.60;71.10;;;;;;4989336;28;20455;-71
2022/03/13 10:23:27;;;;;;;11.63;9.27;;;10.60;72.40;;;;;;4971093;28;20457;-71
2022/03/13 10:25:54;;;;;;;13.03;9.10;;;10.90;72.60;;;;;;4971889;28;20641;-71
2022/03/13 10:28:23;;;;;;;12.70;8.67;;;11.20;72.30;;;;;;4971074;28;20526;-71
2022/03/13 10:31:07;;;;;;;14.50;9.10;;;11.40;70.90;;;;;;4979271;28;20954;-71
2022/03/13 10:33:52;;;;;;;13.43;9.00;;;11.30;70.80;;;;;;4990129;28;20459;-70
2022/03/13 10:36:24;;;;;;;13.40;9.20;;;11.30;71.80;;;;;;4964940;28;21060;-71
2022/03/13 10:38:51;;;;;;;11.20;8.77;;;11.40;70.90;;;;;;4970943;28;20491;-71
2022/03/13 10:41:20;;;;;;;15.23;8.87;;;11.40;70.90;;;;;;4971119;28;20456;-72
2022/03/13 10:43:58;;;;;;;13.40;8.70;;;11.30;70.30;;;;;;4971842;28;20575;-73
2022/03/13 10:46:26;;;;;;;17.87;7.60;;;11.10;70.80;;;;;;4971303;28;20491;-72
2022/03/13 10:48:54;;;;;;;12.90;8.40;;;11.00;72.10;;;;;;4970738;28;20462;-71
2022/03/13 10:51:33;;;;;;;13.10;8.33;;;11.20;71.80;;;;;;4971489;28;20456;-73
2022/03/13 10:54:00;;;;;;;11.13;8.60;;;11.60;73.50;;;;;;4986495;28;20509;-72
2022/03/13 10:56:27;;;;;;;12.13;8.90;;;11.80;69.70;;;;;;4991994;28;20467;-73
2022/03/13 10:58:53;;;;;;;13.90;9.17;;;11.80;71.40;;;;;;4978128;28;20866;-71
2022/03/13 11:01:23;;;;;;;15.30;8.60;;;12.00;71.20;;;;;;4979855;28;20459;-72
2022/03/13 11:03:52;;;;;;;12.67;8.80;;;12.10;70.20;;;;;;4974782;28;20592;-72
2022/03/13 11:06:19;;;;;;;11.50;8.47;;;12.50;70.20;;;;;;4959827;28;20487;-72
2022/03/13 11:08:48;;;;;;;14.20;8.83;;;12.90;71.70;;;;;;4974360;28;20451;-73
2022/03/13 11:11:16;;;;;;;13.30;9.20;;;13.30;68.60;;;;;;4988506;28;20455;-73
2022/03/13 11:13:47;;;;;;;13.63;9.63;;;13.30;68.70;;;;;;4974596;28;21161;-72
2022/03/13 11:16:19;;;;;;;13.63;9.40;;;13.10;68.90;;;;;;4968397;28;20476;-73
2022/03/13 11:18:48;;;;;;;12.90;8.13;;;12.90;68.30;;;;;;4974465;28;20460;-73
2022/03/13 11:21:15;;;;;;;15.20;8.60;;;13.20;69.80;;;;;;4974320;28;20460;-73
2022/03/13 11:23:41;;;;;;;15.83;8.87;;;13.30;68.20;;;;;;4974531;28;20466;-73
2022/03/13 11:26:09;;;;;;;12.13;8.70;;;13.30;69.20;;;;;;4989063;28;20490;-73
2022/03/13 11:28:38;;;;;;;14.50;10.10;;;13.50;67.10;;;;;;4993720;28;20455;-72
2022/03/13 11:31:29;;;;;;;13.90;9.50;;;13.70;67.70;;;;;;4984105;28;20464;-71
2022/03/13 11:34:16;;;;;;;12.73;9.50;;;13.80;67.80;;;;;;4993554;28;20455;-71
2022/03/13 11:36:43;;;;;;;10.87;9.37;;;13.80;68.60;;;;;;4993601;28;20471;-72
2022/03/13 11:39:13;;;;;;;15.27;9.40;;;13.80;65.30;;;;;;4993247;28;20840;-72
2022/03/13 11:41:43;;;;;;;10.10;8.23;;;13.80;65.80;;;;;;4993227;28;20459;-72
2022/03/13 11:44:38;;;;;;;13.47;9.80;;;13.60;65.20;;;;;;4991711;28;21291;-72
2022/03/13 11:47:25;;;;;;;20.37;9.70;;;13.40;67.10;;;;;;4982383;28;20483;-73
2022/03/13 11:49:52;;;;;;;14.63;9.17;;;13.30;66.80;;;;;;4973712;28;20456;-72
2022/03/13 11:52:30;;;;;;;14.37;8.50;;;13.40;67.70;;;;;;4974163;28;20452;-72
2022/03/13 11:55:00;;;;;;;12.20;9.47;;;13.70;66.50;;;;;;4973452;28;20960;-72
2022/03/13 11:57:40;;;;;;;12.10;8.50;;;13.90;68.40;;;;;;4978906;28;20502;-72
2022/03/13 12:00:28;;;;;;;13.20;9.37;;;14.00;69.60;;;;;;4988461;28;20459;-71
2022/03/13 12:03:07;;;;;;;17.73;9.47;;;14.00;65.90;;;;;;4987297;28;20448;-72
2022/03/13 12:05:34;;;;;;;14.05;8.93;;;13.90;65.40;;;;;;4972239;28;20481;-72
2022/03/13 12:08:05;;;;;;;12.50;9.87;;;14.00;66.80;;;;;;4972106;28;20225;-71
2022/03/13 12:10:35;;;;;;;18.30;9.10;;;14.10;66.20;;;;;;4973349;28;20551;-73
2022/03/13 12:13:07;;;;;;;13.00;9.70;;;14.20;64.50;;;;;;4990224;28;20457;-71
2022/03/13 12:15:35;;;;;;;14.50;9.87;;;14.10;66.50;;;;;;4977527;28;20495;-71
2022/03/13 12:18:17;;;;;;;14.60;9.50;;;14.60;66.20;;;;;;4973835;28;20910;-72
2022/03/13 12:20:45;;;;;;;12.70;9.60;;;15.00;65.30;;;;;;4973245;28;20456;-71
2022/03/13 12:23:24;;;;;;;11.63;9.33;;;15.20;64.90;;;;;;4973706;28;20595;-72
2022/03/13 12:25:54;;;;;;;23.47;9.70;;;15.20;64.00;;;;;;4976731;28;20483;-72
2022/03/13 12:28:33;;;;;;;22.33;10.23;;;15.10;64.80;;;;;;4985425;28;20833;-73
2022/03/13 12:31:01;;;;;;;11.57;8.90;;;14.70;63.10;;;;;;4991831;28;20457;-72
2022/03/13 12:33:33;;;;;;;13.37;9.87;;;14.50;63.90;;;;;;4991277;28;20510;-72
2022/03/13 12:36:02;;;;;;;12.87;9.60;;;14.60;64.30;;;;;;4972935;28;20563;-73
2022/03/13 12:38:30;;;;;;;16.07;9.97;;;15.00;64.50;;;;;;4973121;28;20492;-71
2022/03/13 12:40:57;;;;;;;14.27;10.47;;;15.10;64.60;;;;;;4972861;28;20452;-72
2022/03/13 12:43:25;;;;;;;11.67;9.70;;;15.10;64.40;;;;;;4972425;28;20961;-71
2022/03/13 12:45:53;;;;;;;18.43;10.23;;;14.80;64.30;;;;;;4978041;28;20506;-71